Port Sheldon, MI

6:28 PM EDT on May 29, 2015 (GMT -0400)
Sheldon Dunes | | Change Station
CLOSE
Current Station
Personal Weather Station
Location: West Olive, MI
Elevation: 646 ft
Nearby Weather Stations

Elev 646 ft 42.94 °N, 86.21 °W | Updated 56 seconds ago

Thunderstorm
Thunderstorm
73.8 °F
Feels Like 72 °F
N
0.0
Wind Variable Wind from North
Gusts 0.0 mph

Today
High -- | Low -- °F
--% Chance of Precip.
Yesterday
High -- | Low -- °F
Precip. -- in
6:10 AM 9:14 PM
Waxing Gibbous, 86% visible
Pressure 29.95 in
Visibility 10.0 miles
Clouds Mostly Cloudy 8500 ft
Heat Index 72 °F
Dew Point 70 °F
Humidity 88%
Rainfall 0.02 in
Snow Depth Not available.
UV 2 out of 12
Pollen 8.90 out of 12
Air Quality Not available.
Flu Activity Sporadic
METAR KBIV 292153Z AUTO 13006KT 10SM BKN085 24/21 A2996 RMK AO2 SLP141 T02390206

More Conditions Fewer Conditions

Pressure 29.95 in
Visibility 10.0 miles
Clouds Mostly Cloudy 8500 ft
Heat Index 72 °F
Dew Point 70 °F
Humidity 88%
Rainfall 0.02 in
Snow Depth Not available.
UV 2 out of 12
Pollen 8.90 out of 12
Air Quality Not available.
Flu Activity Sporadic
METAR KBIV 292153Z AUTO 13006KT 10SM BKN085 24/21 A2996 RMK AO2 SLP141 T02390206

More Conditions Fewer Conditions

10-Day Weather Forecast

Almanac

Astronomy

May. 29, 2015 Rise Set
Actual Time
Civil Twilight
Nautical Twilight
Astronomical Twilight
Moon
Length of Visible Light
Length of Day
Tomorrow will be .
, % of the Moon is Illuminated

Today's Extremes

State Highs State Lows

Community

WunderPhotos

Upload Photos

1,825,378 photos uploaded!

WunderBlogs® & News

Nearby

Air Quality

  Air Quality AQ Index Pollutant
Not available.

Snow Depth

Station Depth Elevation

Earthquake Activity

City Distance Mag. Time & Date
Minimum magnitude displayed is 2.5.

Coastal Water Temperatures

Place Temperature

Stations

Nearby Weather Stations

Station Location Temp. Windchill Dew Point Humidity Wind Precip. Elev Updated Type